Time;durP1;ratioP1;P1;durP2;ratioP2;P2;SDS_P1;SDS_P2;PMS_P1;PMS_P2;Temp;Humidity;BMP_temperature;BMP_pressure;BME280_temperature;BME280_humidity;BME280_pressure;Samples;Min_cycle;Max_cycle;Signal;HPM_P1;HPM_P2
2022/03/02 00:01:36;;;;;;;13.67;9.83;;;7.70;99.90;;;;;;5010213;28;20289;-63
2022/03/02 00:04:02;;;;;;;17.90;10.80;;;7.80;99.90;;;;;;5011539;28;20302;-62
2022/03/02 00:06:28;;;;;;;15.53;10.73;;;7.80;99.90;;;;;;5011481;28;20199;-62
2022/03/02 00:08:54;;;;;;;18.10;10.77;;;7.80;99.90;;;;;;5011549;28;20609;-62
2022/03/02 00:11:19;;;;;;;13.47;9.73;;;7.80;99.90;;;;;;5011726;28;20175;-62
2022/03/02 00:13:51;;;;;;;15.80;10.10;;;7.80;99.90;;;;;;5010610;28;20584;-65
2022/03/02 00:16:17;;;;;;;15.57;9.97;;;7.80;99.90;;;;;;5008885;28;20183;-63
2022/03/02 00:18:44;;;;;;;17.93;10.73;;;7.80;99.90;;;;;;5010429;28;20189;-63
2022/03/02 00:21:10;;;;;;;15.77;10.10;;;7.80;99.90;;;;;;5010503;28;20178;-64
2022/03/02 00:23:39;;;;;;;15.73;10.53;;;;;;;;;;5010021;28;20183;-66
2022/03/02 00:26:05;;;;;;;14.47;9.40;;;7.80;99.90;;;;;;5009678;28;20225;-65
2022/03/02 00:28:31;;;;;;;16.83;10.17;;;7.80;99.90;;;;;;5009833;28;20190;-65
2022/03/02 00:30:56;;;;;;;14.93;10.17;;;7.80;99.90;;;;;;5009585;28;20638;-65
2022/03/02 00:33:22;;;;;;;13.90;9.77;;;7.80;99.90;;;;;;5009052;28;20804;-65
2022/03/02 00:35:48;;;;;;;16.17;10.13;;;;;;;;;;5010123;28;20205;-65
2022/03/02 00:38:14;;;;;;;14.50;9.97;;;7.90;99.90;;;;;;5010038;28;20266;-65
2022/03/02 00:40:41;;;;;;;14.53;10.13;;;;;;;;;;5009448;28;20214;-65
2022/03/02 00:43:13;;;;;;;14.40;10.30;;;7.90;99.90;;;;;;5056689;28;21168;-66
2022/03/02 00:45:39;;;;;;;14.30;9.97;;;7.80;99.90;;;;;;5066053;28;20176;-66
2022/03/02 00:48:06;;;;;;;16.03;10.80;;;7.80;99.90;;;;;;5066674;28;20211;-66
2022/03/02 00:50:32;;;;;;;14.03;9.90;;;7.80;99.90;;;;;;5066134;28;20177;-64
2022/03/02 00:52:59;;;;;;;14.40;10.17;;;7.80;99.90;;;;;;5060361;28;20251;-64
2022/03/02 00:55:25;;;;;;;15.70;10.63;;;7.80;99.90;;;;;;5067181;28;20199;-65
2022/03/02 00:57:51;;;;;;;13.30;9.33;;;7.80;99.90;;;;;;5065799;28;20176;-65
2022/03/02 01:00:17;;;;;;;13.60;9.67;;;7.90;99.90;;;;;;5065996;28;20176;-65
2022/03/02 01:02:45;;;;;;;14.50;10.17;;;7.90;99.90;;;;;;5062735;28;20299;-65
2022/03/02 01:05:11;;;;;;;15.27;10.17;;;7.80;99.90;;;;;;5065068;28;20234;-65
2022/03/02 01:07:37;;;;;;;13.77;9.73;;;7.80;99.90;;;;;;5064275;28;20172;-63
2022/03/02 01:10:05;;;;;;;14.07;10.20;;;7.80;99.90;;;;;;5064910;28;20741;-64
2022/03/02 01:12:31;;;;;;;16.47;10.17;;;7.80;99.90;;;;;;5064791;28;20254;-64
2022/03/02 01:14:56;;;;;;;15.53;10.47;;;7.90;99.90;;;;;;5064081;28;20637;-65
2022/03/02 01:17:22;;;;;;;14.47;10.57;;;7.80;99.90;;;;;;5064881;28;20665;-65
2022/03/02 01:19:49;;;;;;;15.73;10.90;;;7.90;99.90;;;;;;5063609;28;20180;-65
2022/03/02 01:22:15;;;;;;;17.37;10.77;;;7.90;99.90;;;;;;5051678;28;20209;-66
2022/03/02 01:24:41;;;;;;;15.83;11.33;;;7.80;99.90;;;;;;5047424;28;20178;-65
2022/03/02 01:27:07;;;;;;;14.43;10.70;;;7.80;99.90;;;;;;5047195;28;20177;-65
2022/03/02 01:29:34;;;;;;;15.60;11.00;;;7.80;99.90;;;;;;5054936;28;20169;-64
2022/03/02 01:32:03;;;;;;;15.40;10.97;;;7.80;99.90;;;;;;5051588;28;20182;-63
2022/03/02 01:34:29;;;;;;;17.70;11.70;;;7.80;99.90;;;;;;5050511;28;20173;-64
2022/03/02 01:36:55;;;;;;;17.23;11.23;;;7.90;99.90;;;;;;5047199;28;20185;-63
2022/03/02 01:39:21;;;;;;;16.90;11.90;;;7.90;99.90;;;;;;5045680;28;20261;-63
2022/03/02 01:41:47;;;;;;;17.90;12.10;;;7.90;99.90;;;;;;5046728;28;20239;-63
2022/03/02 01:44:12;;;;;;;15.93;10.87;;;7.90;99.90;;;;;;5053326;28;20268;-63
2022/03/02 01:46:39;;;;;;;16.93;12.00;;;7.90;99.90;;;;;;5046962;28;20185;-63
2022/03/02 01:49:05;;;;;;;19.83;11.13;;;7.90;99.90;;;;;;5047215;28;20177;-63
2022/03/02 01:51:31;;;;;;;16.37;11.50;;;7.90;99.90;;;;;;5046675;28;20271;-64
2022/03/02 01:53:57;;;;;;;17.20;11.57;;;7.90;99.90;;;;;;5037511;28;20182;-64
2022/03/02 01:56:23;;;;;;;17.60;11.73;;;7.90;99.90;;;;;;5033328;28;20637;-64
2022/03/02 01:58:49;;;;;;;17.10;11.20;;;7.90;99.90;;;;;;5051650;28;20178;-64
2022/03/02 02:01:15;;;;;;;16.37;11.40;;;7.90;99.90;;;;;;5037517;28;20757;-64
2022/03/02 02:03:42;;;;;;;16.37;11.43;;;7.90;99.90;;;;;;5047717;28;20260;-64
2022/03/02 02:06:08;;;;;;;16.83;12.00;;;7.70;99.90;;;;;;5052110;28;20284;-64
2022/03/02 02:08:34;;;;;;;20.13;12.23;;;7.90;99.90;;;;;;5047810;28;20212;-63
2022/03/02 02:11:01;;;;;;;17.40;11.67;;;7.90;99.90;;;;;;5036683;28;20224;-63
2022/03/02 02:13:30;;;;;;;17.33;12.20;;;7.90;99.90;;;;;;5045502;28;20177;-64
2022/03/02 02:15:56;;;;;;;17.40;12.00;;;7.90;99.90;;;;;;5031417;28;20181;-64
2022/03/02 02:18:22;;;;;;;18.43;12.40;;;7.90;99.90;;;;;;5059046;28;20181;-64
2022/03/02 02:20:48;;;;;;;19.27;12.50;;;7.90;99.90;;;;;;5032937;28;20178;-64
2022/03/02 02:23:14;;;;;;;19.33;13.37;;;7.90;99.90;;;;;;5043941;28;20226;-64
2022/03/02 02:25:40;;;;;;;16.73;11.37;;;7.90;99.90;;;;;;5036755;28;20182;-63
2022/03/02 02:28:09;;;;;;;16.87;11.80;;;7.90;99.90;;;;;;5033571;28;20188;-64
2022/03/02 02:30:35;;;;;;;17.73;12.67;;;7.90;99.90;;;;;;5033558;28;20250;-64
2022/03/02 02:33:00;;;;;;;17.03;12.77;;;7.90;99.90;;;;;;5032670;28;20184;-64
2022/03/02 02:35:27;;;;;;;18.07;12.10;;;8.00;99.90;;;;;;5036809;28;20181;-64
2022/03/02 02:37:54;;;;;;;16.27;11.70;;;8.00;99.90;;;;;;5033450;28;20181;-64
2022/03/02 02:40:21;;;;;;;19.10;13.13;;;7.90;99.90;;;;;;5036653;28;20713;-65
2022/03/02 02:42:48;;;;;;;17.70;12.03;;;8.00;99.90;;;;;;5031476;28;20253;-65
2022/03/02 02:45:17;;;;;;;19.23;13.20;;;7.90;99.90;;;;;;5036099;28;20174;-65
2022/03/02 02:47:53;;;;;;;18.47;12.77;;;8.00;99.90;;;;;;5033463;28;20182;-65
2022/03/02 02:50:27;;;;;;;19.40;13.30;;;8.00;99.90;;;;;;5032861;28;20265;-65
2022/03/02 02:52:54;;;;;;;18.37;12.73;;;7.90;99.90;;;;;;5032277;28;20166;-64
2022/03/02 02:55:22;;;;;;;19.00;12.63;;;7.90;99.90;;;;;;5031019;28;20617;-62
2022/03/02 02:57:49;;;;;;;17.83;12.67;;;7.90;99.90;;;;;;5032433;28;20676;-65
2022/03/02 03:00:18;;;;;;;21.13;13.10;;;7.90;99.90;;;;;;5035143;28;20178;-64
2022/03/02 03:02:49;;;;;;;19.53;13.07;;;7.90;99.90;;;;;;5036804;28;20212;-64
2022/03/02 03:05:23;;;;;;;19.73;13.03;;;7.90;99.90;;;;;;5048157;28;20218;-63
2022/03/02 03:07:49;;;;;;;19.53;13.13;;;8.00;99.90;;;;;;5049619;28;20208;-63
2022/03/02 03:10:16;;;;;;;18.47;13.00;;;8.00;99.90;;;;;;5049299;28;20261;-64
2022/03/02 03:12:43;;;;;;;22.80;13.90;;;8.00;99.90;;;;;;5034275;28;20634;-64
2022/03/02 03:15:11;;;;;;;18.40;13.40;;;8.00;99.90;;;;;;5038945;28;20173;-64
2022/03/02 03:17:37;;;;;;;21.80;14.00;;;8.00;99.90;;;;;;5050934;28;20778;-64
2022/03/02 03:20:07;;;;;;;21.00;14.00;;;8.00;99.90;;;;;;5032893;28;20186;-64
2022/03/02 03:22:33;;;;;;;21.60;14.00;;;8.00;99.90;;;;;;5031092;28;20224;-65
2022/03/02 03:25:00;;;;;;;17.93;12.37;;;8.00;99.90;;;;;;5030641;28;20223;-65
2022/03/02 03:27:26;;;;;;;19.53;13.17;;;;;;;;;;5028867;28;20197;-66
2022/03/02 03:29:51;;;;;;;21.73;14.27;;;8.00;99.90;;;;;;5044388;28;20205;-65
2022/03/02 03:32:17;;;;;;;20.97;13.93;;;8.10;99.90;;;;;;5029899;28;20216;-65
2022/03/02 03:34:43;;;;;;;21.43;13.67;;;8.00;99.90;;;;;;5032300;28;20652;-64
2022/03/02 03:37:09;;;;;;;21.03;13.97;;;8.00;99.90;;;;;;5036308;28;20711;-65
2022/03/02 03:39:35;;;;;;;19.10;13.17;;;8.00;99.90;;;;;;5036958;28;20257;-65
2022/03/02 03:42:01;;;;;;;21.27;14.73;;;8.10;99.90;;;;;;5030261;28;20230;-64
2022/03/02 03:44:27;;;;;;;20.90;14.60;;;8.00;99.90;;;;;;5030506;28;20216;-66
2022/03/02 03:46:53;;;;;;;26.13;14.47;;;;;;;;;;5033382;28;20174;-66
2022/03/02 03:49:18;;;;;;;20.77;13.90;;;8.10;99.90;;;;;;5037539;28;20653;-66
2022/03/02 03:51:44;;;;;;;22.23;15.03;;;8.00;99.90;;;;;;5031543;28;20166;-66
2022/03/02 03:54:10;;;;;;;21.63;14.43;;;8.00;99.90;;;;;;5030785;28;20539;-66
2022/03/02 03:56:36;;;;;;;21.27;14.63;;;8.00;99.90;;;;;;5030363;28;20166;-66
2022/03/02 03:59:02;;;;;;;22.80;15.03;;;8.80;99.90;;;;;;5030325;28;20189;-65
2022/03/02 04:01:28;;;;;;;20.10;14.07;;;8.00;99.90;;;;;;5030427;28;20206;-65
2022/03/02 04:03:54;;;;;;;21.33;14.77;;;8.00;99.90;;;;;;5031612;28;20272;-65
2022/03/02 04:06:20;;;;;;;24.33;15.20;;;8.00;99.90;;;;;;5048877;28;20181;-65
2022/03/02 04:08:46;;;;;;;22.40;14.40;;;8.00;99.90;;;;;;5041998;28;20197;-65
2022/03/02 04:11:12;;;;;;;23.33;15.17;;;8.10;99.90;;;;;;5031113;28;20632;-65
2022/03/02 04:13:38;;;;;;;22.00;15.77;;;8.20;99.90;;;;;;5031103;28;20176;-65
2022/03/02 04:16:04;;;;;;;20.17;14.43;;;8.10;99.90;;;;;;5030733;28;20177;-65
2022/03/02 04:18:31;;;;;;;22.60;15.00;;;8.10;99.90;;;;;;5041033;28;20240;-65
2022/03/02 04:20:58;;;;;;;22.43;15.37;;;8.10;99.90;;;;;;5031140;28;20269;-65
2022/03/02 04:23:24;;;;;;;21.40;14.97;;;8.10;99.90;;;;;;5030552;28;20236;-65
2022/03/02 04:25:49;;;;;;;22.40;15.10;;;8.10;99.90;;;;;;5031033;28;20174;-64
2022/03/02 04:28:15;;;;;;;24.00;15.43;;;8.10;99.90;;;;;;5029965;28;20380;-65
2022/03/02 04:30:41;;;;;;;20.80;14.30;;;8.10;99.90;;;;;;5031594;28;20209;-64
2022/03/02 04:33:07;;;;;;;22.33;14.83;;;8.20;99.90;;;;;;5030587;28;20265;-65
2022/03/02 04:35:33;;;;;;;21.20;14.63;;;8.10;99.90;;;;;;5044221;28;20238;-65
2022/03/02 04:37:59;;;;;;;24.90;15.40;;;8.10;99.90;;;;;;5041858;28;20177;-64
2022/03/02 04:40:25;;;;;;;23.97;16.23;;;8.20;99.90;;;;;;5042462;28;20195;-65
2022/03/02 04:42:50;;;;;;;23.20;14.83;;;8.20;99.90;;;;;;5032275;28;20276;-65
2022/03/02 04:45:16;;;;;;;23.77;15.37;;;;;;;;;;5039863;28;20763;-65
2022/03/02 04:47:43;;;;;;;25.87;16.60;;;8.20;99.90;;;;;;5048026;28;20193;-65
2022/03/02 04:50:11;;;;;;;27.30;16.67;;;8.20;99.90;;;;;;5037771;28;20640;-65
2022/03/02 04:52:36;;;;;;;26.60;17.20;;;8.20;99.90;;;;;;5030350;28;20231;-66
2022/03/02 04:55:06;;;;;;;25.37;16.03;;;8.20;99.90;;;;;;5030845;28;20193;-66
2022/03/02 04:57:33;;;;;;;25.30;16.40;;;8.20;99.90;;;;;;5029520;28;20181;-66
2022/03/02 04:59:58;;;;;;;25.97;17.10;;;8.20;99.90;;;;;;5037069;28;20215;-66
2022/03/02 05:02:24;;;;;;;27.53;16.83;;;8.20;99.90;;;;;;5034149;28;20307;-66
2022/03/02 05:04:50;;;;;;;29.20;18.50;;;8.20;99.90;;;;;;5033886;28;20263;-67
2022/03/02 05:07:16;;;;;;;28.77;17.50;;;8.20;99.90;;;;;;5036736;28;20177;-66
2022/03/02 05:09:43;;;;;;;27.43;16.90;;;8.30;99.90;;;;;;5048321;28;20188;-66
2022/03/02 05:12:09;;;;;;;27.93;17.40;;;8.30;99.90;;;;;;5034245;28;20181;-67
2022/03/02 05:14:35;;;;;;;30.53;17.63;;;8.30;99.90;;;;;;5029833;28;20201;-68
2022/03/02 05:17:00;;;;;;;31.33;17.67;;;8.30;99.90;;;;;;5029813;28;20178;-66
2022/03/02 05:19:26;;;;;;;31.53;18.97;;;8.30;99.90;;;;;;5038897;28;20180;-66
2022/03/02 05:21:52;;;;;;;31.87;19.37;;;8.30;99.90;;;;;;5030014;28;20206;-66
2022/03/02 05:24:17;;;;;;;30.47;18.67;;;8.30;99.90;;;;;;5030237;28;20572;-66
2022/03/02 05:26:43;;;;;;;31.43;19.17;;;8.30;99.90;;;;;;5028423;28;20177;-66
2022/03/02 05:29:09;;;;;;;31.40;19.03;;;8.30;99.90;;;;;;5032534;28;20178;-66
2022/03/02 05:31:34;;;;;;;34.33;19.77;;;8.30;99.90;;;;;;5033351;28;20257;-66
2022/03/02 05:34:00;;;;;;;34.77;20.87;;;8.30;99.90;;;;;;5037380;28;20226;-66
2022/03/02 05:36:27;;;;;;;35.00;20.77;;;8.30;99.90;;;;;;5034001;28;20185;-66
2022/03/02 05:38:53;;;;;;;39.87;21.23;;;8.30;99.90;;;;;;5032789;28;20200;-66
2022/03/02 05:41:20;;;;;;;37.83;21.97;;;8.30;99.90;;;;;;5034116;28;20657;-66
2022/03/02 05:43:45;;;;;;;40.83;21.60;;;8.30;99.90;;;;;;5034164;28;21621;-66
2022/03/02 05:46:11;;;;;;;37.97;21.63;;;8.40;99.90;;;;;;5033059;28;20659;-66
2022/03/02 05:48:37;;;;;;;40.47;21.97;;;8.40;99.90;;;;;;5031581;28;20174;-65
2022/03/02 05:51:03;;;;;;;41.03;23.27;;;8.40;99.90;;;;;;5033165;28;21263;-66
2022/03/02 05:53:29;;;;;;;45.73;24.87;;;8.30;99.90;;;;;;5034376;28;20223;-66
2022/03/02 05:55:55;;;;;;;46.10;23.77;;;8.40;99.90;;;;;;5033465;28;20265;-66
2022/03/02 05:58:21;;;;;;;44.53;23.93;;;9.20;99.90;;;;;;5033060;28;20721;-66
2022/03/02 06:00:46;;;;;;;45.97;23.37;;;8.40;99.90;;;;;;5048049;28;20173;-66
2022/03/02 06:03:13;;;;;;;45.67;23.43;;;8.50;99.90;;;;;;5033331;28;20210;-67
2022/03/02 06:05:39;;;;;;;48.43;24.60;;;8.40;99.90;;;;;;5033273;28;20228;-67
2022/03/02 06:08:07;;;;;;;48.27;25.43;;;8.40;99.90;;;;;;5032464;28;20185;-67
2022/03/02 06:10:34;;;;;;;49.83;25.20;;;8.50;99.90;;;;;;5037522;28;20261;-67
2022/03/02 06:12:59;;;;;;;53.20;26.67;;;8.40;99.90;;;;;;5033431;28;20181;-67
2022/03/02 06:15:25;;;;;;;51.13;25.93;;;8.40;99.90;;;;;;5047827;28;20201;-66
2022/03/02 06:17:51;;;;;;;51.50;26.13;;;9.30;99.90;;;;;;5032857;28;20272;-66
2022/03/02 06:20:17;;;;;;;54.20;27.17;;;8.20;99.90;;;;;;5032578;28;20204;-66
2022/03/02 06:22:43;;;;;;;54.47;26.17;;;8.40;99.90;;;;;;5032873;28;20221;-66
2022/03/02 06:25:09;;;;;;;56.87;27.97;;;8.40;99.90;;;;;;5036107;28;20184;-66
2022/03/02 06:27:36;;;;;;;57.63;27.63;;;8.40;99.90;;;;;;5032215;28;20181;-65
2022/03/02 06:30:03;;;;;;;57.70;27.87;;;8.40;99.90;;;;;;5032730;28;20601;-66
2022/03/02 06:32:30;;;;;;;58.87;28.57;;;8.50;99.90;;;;;;5032586;28;20637;-65
2022/03/02 06:34:56;;;;;;;62.20;29.50;;;8.50;99.90;;;;;;5046912;28;20267;-66
2022/03/02 06:37:23;;;;;;;63.73;28.93;;;8.50;99.90;;;;;;5048852;28;20594;-66
2022/03/02 06:39:49;;;;;;;65.10;30.23;;;8.50;99.90;;;;;;5037230;28;20247;-65
2022/03/02 06:42:22;;;;;;;62.60;29.87;;;8.50;99.90;;;;;;5043499;28;20332;-65
2022/03/02 06:44:55;;;;;;;72.70;31.07;;;8.50;99.90;;;;;;5040779;28;20699;-65
2022/03/02 06:47:29;;;;;;;92.33;34.53;;;8.50;99.90;;;;;;5030962;28;20289;-65
2022/03/02 06:50:11;;;;;;;79.07;35.23;;;8.50;99.90;;;;;;5039535;28;20715;-64
2022/03/02 06:52:43;;;;;;;77.73;33.43;;;8.50;99.90;;;;;;5032347;28;20257;-65
2022/03/02 06:55:16;;;;;;;83.83;33.50;;;8.50;99.90;;;;;;5032627;28;20174;-65
2022/03/02 06:57:50;;;;;;;77.43;33.00;;;8.50;99.90;;;;;;5030736;28;20586;-66
2022/03/02 07:00:17;;;;;;;92.40;36.13;;;8.50;99.90;;;;;;5039108;28;20701;-66
2022/03/02 07:02:59;;;;;;;90.27;35.63;;;8.50;99.90;;;;;;5034872;28;20210;-65
2022/03/02 07:05:26;;;;;;;91.13;35.73;;;8.50;99.90;;;;;;5035496;28;20256;-65
2022/03/02 07:07:52;;;;;;;98.43;36.93;;;8.50;99.90;;;;;;5031300;28;20513;-65
2022/03/02 07:10:18;;;;;;;92.43;38.07;;;8.60;99.90;;;;;;5034816;28;20177;-65
2022/03/02 07:12:44;;;;;;;101.40;39.23;;;8.50;99.90;;;;;;5031973;28;20239;-65
2022/03/02 07:15:10;;;;;;;106.70;39.77;;;8.60;99.90;;;;;;5031764;28;20176;-65
2022/03/02 07:17:37;;;;;;;104.00;39.43;;;8.60;99.90;;;;;;5048356;28;20173;-65
2022/03/02 07:20:11;;;;;;;119.60;41.17;;;8.60;99.90;;;;;;5036665;28;20181;-65
2022/03/02 07:22:43;;;;;;;98.17;38.07;;;7.90;99.90;;;;;;5030599;28;20295;-65
2022/03/02 07:25:19;;;;;;;111.67;41.60;;;8.50;99.90;;;;;;5034074;28;20255;-64
2022/03/02 07:27:45;;;;;;;113.37;38.87;;;8.60;99.90;;;;;;5040356;28;20260;-65
2022/03/02 07:30:12;;;;;;;116.70;44.07;;;8.70;99.90;;;;;;5047198;28;20217;-65
2022/03/02 07:32:41;;;;;;;111.13;40.63;;;8.60;99.90;;;;;;5037169;28;20182;-65
2022/03/02 07:35:07;;;;;;;117.90;42.37;;;8.60;99.90;;;;;;5039175;28;20251;-63
2022/03/02 07:37:33;;;;;;;118.70;41.37;;;8.70;99.90;;;;;;5030630;28;20186;-64
2022/03/02 07:40:00;;;;;;;117.67;42.13;;;8.60;99.90;;;;;;5032832;28;20846;-61
2022/03/02 07:42:26;;;;;;;123.83;44.20;;;8.60;99.90;;;;;;5031275;28;20298;-59
2022/03/02 07:44:54;;;;;;;112.90;42.20;;;8.70;99.90;;;;;;5031311;28;20213;-60
2022/03/02 07:47:20;;;;;;;124.90;42.67;;;8.70;99.90;;;;;;5030954;28;20178;-60
2022/03/02 07:49:46;;;;;;;103.30;35.00;;;8.40;99.90;;;;;;5030601;28;20205;-59
2022/03/02 07:52:14;;;;;;;118.97;42.17;;;8.70;99.90;;;;;;5040054;28;20173;-58
2022/03/02 07:54:41;;;;;;;120.17;42.37;;;8.80;99.90;;;;;;5049292;28;20238;-60
2022/03/02 07:57:09;;;;;;;130.17;42.90;;;8.80;99.90;;;;;;5032766;28;20189;-60
2022/03/02 07:59:37;;;;;;;149.73;43.90;;;8.80;99.90;;;;;;5034036;28;20271;-60
2022/03/02 08:02:05;;;;;;;126.70;45.10;;;8.80;99.90;;;;;;5047043;28;20255;-60
2022/03/02 08:04:31;;;;;;;133.03;44.67;;;8.80;99.90;;;;;;5041496;28;20174;-60
2022/03/02 08:06:57;;;;;;;117.87;39.37;;;8.80;99.90;;;;;;5029928;28;20574;-71
2022/03/02 08:09:23;;;;;;;140.73;44.90;;;8.80;99.90;;;;;;5042543;28;20182;-69
2022/03/02 08:11:48;;;;;;;129.90;43.63;;;8.90;99.90;;;;;;5030398;28;20268;-70
2022/03/02 08:14:14;;;;;;;141.00;45.93;;;8.90;99.90;;;;;;5029410;28;20182;-69
2022/03/02 08:16:41;;;;;;;146.67;48.77;;;8.90;99.90;;;;;;5029312;28;20617;-69
2022/03/02 08:19:07;;;;;;;136.40;45.80;;;8.90;99.90;;;;;;5030600;28;20181;-69
2022/03/02 08:21:35;;;;;;;141.37;46.30;;;8.90;99.90;;;;;;5031267;28;20210;-68
2022/03/02 08:24:06;;;;;;;140.93;47.33;;;8.90;99.90;;;;;;5029897;28;20182;-68
2022/03/02 08:26:33;;;;;;;143.17;48.20;;;8.90;99.90;;;;;;5030628;28;20176;-68
2022/03/02 08:29:04;;;;;;;151.10;49.23;;;9.00;99.90;;;;;;5029837;28;20170;-63
2022/03/02 08:31:31;;;;;;;154.37;48.93;;;9.00;99.90;;;;;;5038780;28;20637;-73
2022/03/02 08:33:59;;;;;;;133.73;44.33;;;8.90;99.90;;;;;;5050585;28;20165;-70
2022/03/02 08:36:33;;;;;;;152.63;47.63;;;9.00;99.90;;;;;;5047924;28;20173;-70
2022/03/02 08:39:19;;;;;;;125.23;40.27;;;9.00;99.90;;;;;;5033864;28;20186;-68
2022/03/02 08:41:45;;;;;;;145.10;49.67;;;8.90;99.90;;;;;;5047625;28;20256;-69
2022/03/02 08:44:12;;;;;;;154.20;53.13;;;9.00;99.90;;;;;;5049019;28;20263;-69
2022/03/02 08:46:39;;;;;;;153.10;50.47;;;9.00;99.90;;;;;;5042597;28;20165;-69
2022/03/02 08:49:05;;;;;;;138.73;48.23;;;;;;;;;;5028920;28;20174;-70
2022/03/02 08:51:33;;;;;;;136.57;43.17;;;9.00;99.90;;;;;;5041607;28;20177;-69
2022/03/02 08:54:01;;;;;;;153.90;48.10;;;9.00;99.90;;;;;;5049882;28;20183;-70
2022/03/02 08:56:27;;;;;;;143.67;49.37;;;8.90;99.90;;;;;;5049112;28;20181;-67
2022/03/02 08:58:54;;;;;;;158.73;52.33;;;9.00;99.90;;;;;;5036975;28;20178;-70
2022/03/02 09:01:20;;;;;;;135.43;46.50;;;9.10;99.90;;;;;;5038586;28;20228;-68
2022/03/02 09:03:51;;;;;;;137.77;47.47;;;9.10;99.90;;;;;;5032475;28;20178;-68
2022/03/02 09:06:20;;;;;;;138.40;47.10;;;9.10;99.90;;;;;;5040652;28;20173;-68
2022/03/02 09:08:47;;;;;;;137.03;46.57;;;9.10;99.90;;;;;;5042770;28;20251;-67
2022/03/02 09:11:12;;;;;;;139.33;47.77;;;9.10;99.90;;;;;;5034047;28;20174;-68
2022/03/02 09:13:38;;;;;;;136.47;47.03;;;9.10;99.90;;;;;;5033867;28;20647;-69
2022/03/02 09:16:06;;;;;;;113.20;41.43;;;9.10;99.90;;;;;;5036549;28;20197;-69
2022/03/02 09:18:32;;;;;;;119.70;44.60;;;9.10;99.90;;;;;;5041489;28;20216;-67
2022/03/02 09:21:02;;;;;;;126.97;46.47;;;8.10;99.90;;;;;;5051707;28;20201;-76
2022/03/02 09:23:34;;;;;;;115.57;42.90;;;9.10;99.90;;;;;;5044683;28;20375;-76
2022/03/02 09:26:14;;;;;;;114.57;42.83;;;9.10;99.90;;;;;;5033682;28;20198;-76
2022/03/02 09:28:44;;;;;;;108.37;41.80;;;9.10;99.90;;;;;;5033779;28;20715;-77
2022/03/02 09:31:14;;;;;;;86.30;31.63;;;9.00;99.90;;;;;;5033784;28;20232;-80
2022/03/02 09:33:40;;;;;;;99.67;38.10;;;9.10;99.90;;;;;;5054904;28;20257;-80
2022/03/02 09:36:08;;;;;;;102.40;36.83;;;9.10;99.90;;;;;;5051683;28;20673;-81
2022/03/02 09:38:35;;;;;;;99.57;37.30;;;9.10;99.90;;;;;;5052317;28;20201;-81
2022/03/02 09:41:06;;;;;;;110.00;39.67;;;9.10;99.90;;;;;;5045385;28;20228;-75
2022/03/02 09:43:35;;;;;;;100.17;39.23;;;9.10;99.90;;;;;;5032853;28;20232;-67
2022/03/02 09:46:05;;;;;;;95.67;36.00;;;9.10;99.90;;;;;;5032205;28;20224;-73
2022/03/02 09:48:40;;;;;;;91.03;36.83;;;9.10;99.90;;;;;;5031740;28;20188;-72
2022/03/02 09:51:07;;;;;;;61.77;24.57;;;9.10;99.90;;;;;;5041601;28;20172;-72
2022/03/02 09:53:35;;;;;;;56.40;23.17;;;9.00;99.90;;;;;;5052457;28;20650;-75
2022/03/02 09:56:06;;;;;;;95.07;38.37;;;9.10;99.90;;;;;;5042062;28;20213;-73
2022/03/02 09:58:37;;;;;;;93.27;37.13;;;9.10;99.90;;;;;;5032403;28;20193;-73
2022/03/02 10:01:05;;;;;;;77.00;28.03;;;9.10;99.90;;;;;;5032106;28;20181;-74
2022/03/02 10:03:45;;;;;;;96.23;38.73;;;9.00;99.90;;;;;;5032912;28;20312;-74
2022/03/02 10:06:12;;;;;;;104.70;38.50;;;9.00;99.90;;;;;;5032717;28;20235;-78
2022/03/02 10:08:52;;;;;;;73.43;26.23;;;9.00;99.90;;;;;;5033404;28;20181;-76
2022/03/02 10:11:26;;;;;;;82.70;31.83;;;9.00;99.90;;;;;;5033349;28;20174;-71
2022/03/02 10:13:57;;;;;;;66.83;24.33;;;9.10;99.90;;;;;;5039046;28;20203;-66
2022/03/02 10:16:28;;;;;;;77.30;27.33;;;9.00;99.90;;;;;;5052027;28;20178;-66
2022/03/02 10:19:01;;;;;;;93.83;35.67;;;9.00;99.90;;;;;;5047928;28;20180;-66
2022/03/02 10:21:30;;;;;;;101.90;39.73;;;9.00;99.90;;;;;;5050842;28;20188;-65
2022/03/02 10:24:01;;;;;;;78.03;29.90;;;9.00;99.90;;;;;;5052034;28;20271;-65
2022/03/02 10:26:29;;;;;;;107.40;39.30;;;9.00;99.90;;;;;;5051463;28;20234;-65
2022/03/02 10:29:30;;;;;;;102.50;40.23;;;9.00;99.90;;;;;;5051058;28;20170;-65
2022/03/02 10:32:09;;;;;;;92.03;34.97;;;8.90;99.90;;;;;;5032113;28;20227;-65
2022/03/02 10:34:46;;;;;;;93.67;37.27;;;9.00;99.90;;;;;;5031918;28;20724;-65
2022/03/02 10:37:35;;;;;;;80.47;29.73;;;9.00;99.90;;;;;;5032674;28;20216;-66
2022/03/02 10:40:15;;;;;;;100.73;39.67;;;9.00;99.90;;;;;;5031094;28;20176;-65
2022/03/02 10:42:42;;;;;;;104.30;41.53;;;9.00;99.90;;;;;;5032787;28;20660;-65
2022/03/02 10:45:22;;;;;;;96.23;40.20;;;9.00;99.90;;;;;;5031747;28;20245;-65
2022/03/02 10:48:07;;;;;;;94.67;36.53;;;9.00;99.90;;;;;;5051825;28;20173;-65
2022/03/02 10:50:34;;;;;;;85.00;37.33;;;9.10;99.90;;;;;;5041720;28;20184;-66
2022/03/02 10:53:03;;;;;;;81.03;35.50;;;9.10;99.90;;;;;;5031362;28;20608;-66
2022/03/02 10:55:31;;;;;;;90.63;37.87;;;9.10;99.90;;;;;;5032297;28;20166;-65
2022/03/02 10:58:00;;;;;;;93.10;40.40;;;9.00;99.90;;;;;;5031917;28;20244;-62
2022/03/02 11:00:26;;;;;;;91.10;39.30;;;9.10;99.90;;;;;;5044764;28;20185;-64
2022/03/02 11:02:57;;;;;;;85.60;37.87;;;9.10;99.90;;;;;;5045850;28;20725;-67
2022/03/02 11:05:28;;;;;;;80.70;35.70;;;9.10;99.90;;;;;;5047205;28;20169;-65
2022/03/02 11:07:54;;;;;;;84.67;36.07;;;9.10;99.90;;;;;;5036935;28;20208;-62
2022/03/02 11:10:22;;;;;;;72.67;33.20;;;9.10;99.90;;;;;;5039161;28;20595;-62
2022/03/02 11:12:49;;;;;;;81.43;35.80;;;9.10;99.90;;;;;;5050903;28;20177;-62
2022/03/02 11:15:17;;;;;;;79.33;37.07;;;9.10;99.90;;;;;;5038006;28;20719;-62
2022/03/02 11:18:09;;;;;;;74.07;34.47;;;9.20;99.90;;;;;;5032016;28;20177;-63
2022/03/02 11:20:35;;;;;;;64.07;29.33;;;9.20;99.90;;;;;;5031688;28;20182;-62
2022/03/02 11:23:05;;;;;;;71.50;32.63;;;9.40;99.90;;;;;;5042621;28;20617;-66
2022/03/02 11:25:49;;;;;;;63.57;29.67;;;9.30;99.90;;;;;;5050699;28;20173;-62
2022/03/02 11:28:18;;;;;;;58.43;29.37;;;9.30;99.90;;;;;;5045029;28;20221;-62
2022/03/02 11:31:00;;;;;;;57.07;28.80;;;9.30;99.90;;;;;;5046694;28;20181;-63
2022/03/02 11:33:28;;;;;;;56.03;27.37;;;9.40;99.90;;;;;;5040881;28;20190;-62
2022/03/02 11:36:00;;;;;;;51.27;26.33;;;9.40;99.90;;;;;;5031177;28;20180;-62
2022/03/02 11:38:31;;;;;;;47.00;24.23;;;9.40;99.90;;;;;;5040630;28;20656;-62
2022/03/02 11:40:58;;;;;;;43.70;21.47;;;9.50;99.90;;;;;;5030669;28;20186;-62
2022/03/02 11:43:28;;;;;;;48.60;25.77;;;9.40;99.90;;;;;;5036698;28;20442;-62
2022/03/02 11:45:59;;;;;;;46.40;23.83;;;9.40;99.90;;;;;;5033369;28;20180;-62
2022/03/02 11:48:38;;;;;;;44.03;23.57;;;9.30;99.90;;;;;;5031499;28;20264;-63
2022/03/02 11:51:27;;;;;;;43.33;21.57;;;9.40;99.90;;;;;;5032530;28;20228;-62
2022/03/02 11:53:56;;;;;;;39.83;18.90;;;9.40;99.90;;;;;;5050481;28;20172;-62
2022/03/02 11:56:25;;;;;;;39.83;20.70;;;9.40;99.90;;;;;;5032626;28;20223;-62
2022/03/02 11:59:09;;;;;;;28.67;14.77;;;9.40;99.90;;;;;;5029840;28;20169;-61
2022/03/02 12:01:48;;;;;;;28.17;15.53;;;9.30;99.90;;;;;;5029572;28;20197;-64
2022/03/02 12:04:14;;;;;;;36.67;20.50;;;11.30;99.90;;;;;;5030592;28;20217;-60
2022/03/02 12:06:42;;;;;;;31.40;16.80;;;9.40;99.90;;;;;;5030972;28;20176;-60
2022/03/02 12:09:08;;;;;;;36.13;18.60;;;;;;;;;;5030362;28;20269;-60
2022/03/02 12:11:38;;;;;;;35.23;19.57;;;9.70;99.90;;;;;;5030518;28;20285;-59
2022/03/02 12:14:09;;;;;;;36.43;19.70;;;9.40;99.90;;;;;;5031736;28;20257;-60
2022/03/02 12:16:43;;;;;;;39.53;18.43;;;9.40;99.90;;;;;;5050509;28;20173;-61
2022/03/02 12:19:27;;;;;;;32.80;17.80;;;9.40;99.90;;;;;;5030408;28;20181;-60
2022/03/02 12:22:13;;;;;;;27.77;13.93;;;9.40;99.90;;;;;;5031133;28;20198;-60
2022/03/02 12:24:39;;;;;;;30.83;17.67;;;9.40;99.90;;;;;;5030275;28;20200;-60
2022/03/02 12:27:07;;;;;;;31.43;15.73;;;9.50;99.90;;;;;;5030187;28;20264;-60
2022/03/02 12:29:34;;;;;;;30.77;17.57;;;9.40;99.90;;;;;;5033751;28;20236;-59
2022/03/02 12:32:15;;;;;;;28.83;16.03;;;9.50;99.90;;;;;;5030197;28;20174;-62
2022/03/02 12:34:46;;;;;;;30.50;17.33;;;9.50;99.90;;;;;;5030652;28;20186;-60
2022/03/02 12:37:13;;;;;;;33.27;18.10;;;9.50;99.90;;;;;;5031433;28;20178;-70
2022/03/02 12:39:40;;;;;;;31.83;17.57;;;9.50;99.90;;;;;;5034254;28;20392;-60
2022/03/02 12:42:08;;;;;;;31.43;16.93;;;9.50;99.90;;;;;;5041534;28;20213;-61
2022/03/02 12:44:59;;;;;;;30.73;16.90;;;9.50;99.90;;;;;;5042926;28;20208;-61